»·PEaware :: UAL332 KBUR-KIFP

UAL332 :: KBUR-KIFP

FLIGHT INFORMATION

Flight Status: Arrived
Operator:
United Airlines
More flights by this operator :: More flights under this callsign
Pilot: Sergei F. (8485)
Aircraft: BOEING 737-300
(B733)
More flights by this aircraft type
Origin: KBUR Bob Hope-Burbank
United States
Destination: KIFP Laughlin/Bullhead Intl
United States
More flights between these airports :: More routes between these airports
Route: VNY3 PMD HEC EED
File this flight plan on PilotEdge
Remarks: 1
Altitude:
(Current/Filed)
17,000ft
Speed:
(Current/Filed)
300kts
Departed: 29-Jun-18 05:39 PM
Arrived: 29-Jun-18 06:32 PM
Distance/Time
Traveled:
571nm/0:53
Distance/Time
To Go:
Arrived

Flight Plot

Page will automatically refresh every two minutes.

Flight plan parsing failed; only flown route is shown


Map Options




Map Legend


Flown Route
Filed Route
Departure Airport
Arrival Airport
Navaid (VOR, NDB)
Fix

Horizontal Profiles

Position Reports

Time Latitude Longitude Heading Altitude Ground
Speed
29-Jun-18 17:18 34.196826 -118.352398 181 784ft 0kts
29-Jun-18 17:19 34.196826 -118.352398 181 784ft 0kts
29-Jun-18 17:20 34.196826 -118.352398 181 784ft 0kts
29-Jun-18 17:21 34.196826 -118.352398 181 784ft 0kts
29-Jun-18 17:22 34.196826 -118.352398 181 784ft 0kts
29-Jun-18 17:23 34.196826 -118.352398 181 784ft 0kts
29-Jun-18 17:24 34.197099 -118.352358 220 784ft 2kts
29-Jun-18 17:25 34.197173 -118.352096 270 784ft 0kts
29-Jun-18 17:26 34.197173 -118.352096 270 784ft 0kts
29-Jun-18 17:27 34.197173 -118.352096 270 784ft 0kts
29-Jun-18 17:28 34.197173 -118.352096 270 784ft 0kts
29-Jun-18 17:29 34.197184 -118.352851 271 784ft 7kts
29-Jun-18 17:30 34.198191 -118.355203 347 784ft 13kts
29-Jun-18 17:31 34.202896 -118.356497 346 784ft 17kts
29-Jun-18 17:32 34.207839 -118.357855 347 784ft 13kts
29-Jun-18 17:33 34.211291 -118.358831 337 784ft 8kts
29-Jun-18 17:34 34.211595 -118.359093 314 784ft 0kts
29-Jun-18 17:35 34.211596 -118.359093 314 784ft 0kts
29-Jun-18 17:36 34.211379 -118.360183 170 784ft 0kts
29-Jun-18 17:37 34.211379 -118.360183 170 784ft 0kts
29-Jun-18 17:38 34.211379 -118.360183 170 784ft 0kts
29-Jun-18 17:39 34.195097 -118.355702 167 1064ft 160kts
29-Jun-18 17:40 34.155198 -118.379961 224 3917ft 192kts
29-Jun-18 17:41 34.160420 -118.431328 351 5683ft 219kts
29-Jun-18 17:42 34.225510 -118.445378 354 8280ft 270kts
29-Jun-18 17:43 34.304496 -118.452759 356 10799ft 321kts
29-Jun-18 17:44 34.393589 -118.441107 39 13735ft 344kts
29-Jun-18 17:45 34.452597 -118.349793 51 16371ft 351kts
29-Jun-18 17:46 34.512417 -118.254337 51 17018ft 358kts
29-Jun-18 17:47 34.572359 -118.158469 51 16987ft 358kts
29-Jun-18 17:48 34.631600 -118.061249 63 16981ft 360kts
29-Jun-18 17:49 34.645297 -117.940483 80 16981ft 366kts
29-Jun-18 17:50 34.658292 -117.818289 80 16961ft 366kts
29-Jun-18 17:51 34.671425 -117.696797 80 16974ft 361kts
29-Jun-18 17:52 34.684346 -117.576312 80 16991ft 357kts
29-Jun-18 17:53 34.697023 -117.457019 80 16992ft 357kts
29-Jun-18 17:54 34.709338 -117.339986 80 16974ft 358kts
29-Jun-18 17:55 34.721810 -117.220062 80 16993ft 358kts
29-Jun-18 17:56 34.734195 -117.100089 80 16982ft 359kts
29-Jun-18 17:57 34.746378 -116.979431 81 16941ft 364kts
29-Jun-18 17:58 34.758708 -116.856212 81 16902ft 369kts
29-Jun-18 17:59 34.770973 -116.732575 81 16899ft 369kts
29-Jun-18 18:00 34.783101 -116.609065 81 16900ft 369kts
29-Jun-18 18:01 34.795210 -116.484430 81 16900ft 369kts
29-Jun-18 18:02 34.796286 -116.360255 88 16905ft 368kts
29-Jun-18 18:03 34.795161 -116.238041 88 16940ft 368kts
29-Jun-18 18:04 34.794017 -116.113643 88 16964ft 368kts
29-Jun-18 18:05 34.792754 -115.989221 88 16964ft 368kts
29-Jun-18 18:06 34.791367 -115.865159 88 16964ft 368kts
29-Jun-18 18:07 34.789849 -115.740634 88 16979ft 368kts
29-Jun-18 18:08 34.788202 -115.615854 88 16960ft 368kts
29-Jun-18 18:09 34.786441 -115.492104 88 16897ft 368kts
29-Jun-18 18:10 34.784537 -115.367183 88 16858ft 368kts
29-Jun-18 18:11 34.782558 -115.245406 89 16861ft 369kts
29-Jun-18 18:12 34.780392 -115.119602 90 16851ft 378kts
29-Jun-18 18:13 34.778085 -114.993271 92 16893ft 348kts
29-Jun-18 18:14 34.775938 -114.882062 93 16323ft 325kts
29-Jun-18 18:15 34.773793 -114.775247 93 14816ft 307kts
29-Jun-18 18:16 34.771680 -114.674565 94 13315ft 291kts
29-Jun-18 18:17 34.769579 -114.578186 94 11813ft 280kts
29-Jun-18 18:18 34.790802 -114.496567 18 10308ft 279kts
29-Jun-18 18:19 34.864908 -114.478235 10 8841ft 273kts
29-Jun-18 18:20 34.938213 -114.461103 10 7361ft 269kts
29-Jun-18 18:21 35.009847 -114.444608 10 6293ft 247kts
29-Jun-18 18:22 35.076354 -114.429659 10 6313ft 238kts
29-Jun-18 18:23 35.140432 -114.415219 10 6327ft 239kts
29-Jun-18 18:24 35.205905 -114.400159 10 6362ft 240kts
29-Jun-18 18:25 35.268946 -114.405120 304 6739ft 236kts
29-Jun-18 18:26 35.306338 -114.468302 302 6648ft 218kts
29-Jun-18 18:27 35.329828 -114.529789 252 5299ft 184kts
29-Jun-18 18:28 35.295543 -114.564122 186 3745ft 158kts
29-Jun-18 18:29 35.254068 -114.565913 178 2538ft 140kts
29-Jun-18 18:30 35.213981 -114.564127 176 1616ft 141kts
29-Jun-18 18:31 35.176896 -114.561112 175 913ft 130kts
29-Jun-18 18:32 35.152112 -114.559151 176 702ft 14kts
29-Jun-18 18:33 35.151315 -114.558266 87 702ft 0kts
29-Jun-18 18:34 35.151884 -114.557740 358 702ft 10kts
29-Jun-18 18:35 35.156446 -114.558074 356 702ft 21kts
29-Jun-18 18:36 35.162005 -114.558503 355 702ft 16kts
29-Jun-18 18:37 35.165059 -114.558183 80 702ft 8kts
29-Jun-18 18:38 35.165144 -114.556400 85 702ft 1kts
29-Jun-18 18:39 35.165148 -114.556336 85 702ft 0kts
29-Jun-18 18:45 43.567011 -116.219741 30 2851ft 0kts
29-Jun-18 18:46 43.567011 -116.219741 30 2851ft 0kts

Navigation Log

Ident Type
Flight plan parsing failed, navigation log unavailable